sensor_id;sensor_type;location;lat;lon;timestamp;pressure;altitude;pressure_sealevel;temperature;humidity
33432;BME280;35187;31.882;34.828;2023-04-24T00:00:30;100540;;;21;45
33432;BME280;35187;31.882;34.828;2023-04-24T00:02:59;100540;;;22;45
33432;BME280;35187;31.882;34.828;2023-04-24T00:05:28;100540;;;21;45
33432;BME280;35187;31.882;34.828;2023-04-24T00:07:57;100540;;;22;45
33432;BME280;35187;31.882;34.828;2023-04-24T00:10:26;100540;;;22;45
33432;BME280;35187;31.882;34.828;2023-04-24T00:12:55;100540;;;21;45
33432;BME280;35187;31.882;34.828;2023-04-24T00:15:24;100540;;;21;45
33432;BME280;35187;31.882;34.828;2023-04-24T00:17:53;100540;;;22;45
33432;BME280;35187;31.882;34.828;2023-04-24T00:20:22;100540;;;21;45
33432;BME280;35187;31.882;34.828;2023-04-24T00:22:50;100530;;;21;45
33432;BME280;35187;31.882;34.828;2023-04-24T00:25:19;100530;;;21;45
33432;BME280;35187;31.882;34.828;2023-04-24T00:27:48;100530;;;21;45
33432;BME280;35187;31.882;34.828;2023-04-24T00:30:17;100530;;;21;45
33432;BME280;35187;31.882;34.828;2023-04-24T00:32:46;100530;;;21;45
33432;BME280;35187;31.882;34.828;2023-04-24T00:35:15;100530;;;21;45
33432;BME280;35187;31.882;34.828;2023-04-24T00:37:44;100540;;;21;45
33432;BME280;35187;31.882;34.828;2023-04-24T00:40:13;100540;;;21;45
33432;BME280;35187;31.882;34.828;2023-04-24T00:42:42;100540;;;22;45
33432;BME280;35187;31.882;34.828;2023-04-24T00:45:12;100540;;;21;44
33432;BME280;35187;31.882;34.828;2023-04-24T00:47:42;100540;;;21;44
33432;BME280;35187;31.882;34.828;2023-04-24T00:50:11;100540;;;21;44
33432;BME280;35187;31.882;34.828;2023-04-24T00:52:40;100540;;;21;44
33432;BME280;35187;31.882;34.828;2023-04-24T00:55:09;100540;;;21;44
33432;BME280;35187;31.882;34.828;2023-04-24T00:57:38;100540;;;21;44
33432;BME280;35187;31.882;34.828;2023-04-24T01:00:08;100540;;;21;44
33432;BME280;35187;31.882;34.828;2023-04-24T01:02:38;100550;;;21;44
33432;BME280;35187;31.882;34.828;2023-04-24T01:05:08;100550;;;22;44
33432;BME280;35187;31.882;34.828;2023-04-24T01:07:37;100550;;;21;44
33432;BME280;35187;31.882;34.828;2023-04-24T01:10:08;100550;;;22;44
33432;BME280;35187;31.882;34.828;2023-04-24T01:12:37;100560;;;21;44
33432;BME280;35187;31.882;34.828;2023-04-24T01:15:08;100550;;;21;44
33432;BME280;35187;31.882;34.828;2023-04-24T01:17:37;100550;;;21;44
33432;BME280;35187;31.882;34.828;2023-04-24T01:20:06;100550;;;21;44
33432;BME280;35187;31.882;34.828;2023-04-24T01:22:35;100550;;;21;44
33432;BME280;35187;31.882;34.828;2023-04-24T01:25:05;100560;;;21;44
33432;BME280;35187;31.882;34.828;2023-04-24T01:27:34;100560;;;21;44
33432;BME280;35187;31.882;34.828;2023-04-24T01:30:04;100560;;;21;44
33432;BME280;35187;31.882;34.828;2023-04-24T01:32:33;100560;;;21;44
33432;BME280;35187;31.882;34.828;2023-04-24T01:35:03;100560;;;21;44
33432;BME280;35187;31.882;34.828;2023-04-24T01:37:32;100560;;;21;44
33432;BME280;35187;31.882;34.828;2023-04-24T01:40:01;100560;;;21;44
33432;BME280;35187;31.882;34.828;2023-04-24T01:42:30;100560;;;21;44
33432;BME280;35187;31.882;34.828;2023-04-24T01:45:00;100560;;;21;44
33432;BME280;35187;31.882;34.828;2023-04-24T01:47:30;100560;;;21;44
33432;BME280;35187;31.882;34.828;2023-04-24T01:49:59;100560;;;21;44
33432;BME280;35187;31.882;34.828;2023-04-24T01:52:28;100560;;;21;44
33432;BME280;35187;31.882;34.828;2023-04-24T01:54:59;100560;;;21;44
33432;BME280;35187;31.882;34.828;2023-04-24T01:57:29;100560;;;21;44
33432;BME280;35187;31.882;34.828;2023-04-24T01:59:58;100560;;;21;43
33432;BME280;35187;31.882;34.828;2023-04-24T02:02:26;100560;;;21;43
33432;BME280;35187;31.882;34.828;2023-04-24T02:04:55;100560;;;21;43
33432;BME280;35187;31.882;34.828;2023-04-24T02:07:24;100560;;;21;43
33432;BME280;35187;31.882;34.828;2023-04-24T02:09:53;100560;;;21;43
33432;BME280;35187;31.882;34.828;2023-04-24T02:12:21;100570;;;21;43
33432;BME280;35187;31.882;34.828;2023-04-24T02:14:50;100570;;;21;43
33432;BME280;35187;31.882;34.828;2023-04-24T02:17:19;100570;;;21;43
33432;BME280;35187;31.882;34.828;2023-04-24T02:19:48;100570;;;21;43
33432;BME280;35187;31.882;34.828;2023-04-24T02:22:17;100570;;;21;43
33432;BME280;35187;31.882;34.828;2023-04-24T02:24:46;100570;;;21;43
33432;BME280;35187;31.882;34.828;2023-04-24T02:27:14;100560;;;21;43
33432;BME280;35187;31.882;34.828;2023-04-24T02:29:43;100560;;;21;43
33432;BME280;35187;31.882;34.828;2023-04-24T02:32:12;100560;;;21;43
33432;BME280;35187;31.882;34.828;2023-04-24T02:34:41;100570;;;21;42
33432;BME280;35187;31.882;34.828;2023-04-24T02:37:10;100570;;;21;42
33432;BME280;35187;31.882;34.828;2023-04-24T02:39:38;100570;;;21;42
33432;BME280;35187;31.882;34.828;2023-04-24T02:42:07;100580;;;21;42
33432;BME280;35187;31.882;34.828;2023-04-24T02:45:51;100570;;;21;42
33432;BME280;35187;31.882;34.828;2023-04-24T02:48:20;100570;;;21;42
33432;BME280;35187;31.882;34.828;2023-04-24T02:50:49;100570;;;21;42
33432;BME280;35187;31.882;34.828;2023-04-24T02:53:18;100570;;;21;42
33432;BME280;35187;31.882;34.828;2023-04-24T02:55:46;100580;;;21;42
33432;BME280;35187;31.882;34.828;2023-04-24T02:58:15;100570;;;21;42
33432;BME280;35187;31.882;34.828;2023-04-24T03:00:44;100570;;;21;42
33432;BME280;35187;31.882;34.828;2023-04-24T03:03:13;100570;;;21;42
33432;BME280;35187;31.882;34.828;2023-04-24T03:05:42;100570;;;21;42
33432;BME280;35187;31.882;34.828;2023-04-24T03:08:11;100570;;;21;42
33432;BME280;35187;31.882;34.828;2023-04-24T03:10:40;100570;;;21;42
33432;BME280;35187;31.882;34.828;2023-04-24T03:13:09;100580;;;21;42
33432;BME280;35187;31.882;34.828;2023-04-24T03:15:37;100580;;;21;42
33432;BME280;35187;31.882;34.828;2023-04-24T03:18:06;100580;;;21;42
33432;BME280;35187;31.882;34.828;2023-04-24T03:20:35;100580;;;21;42
33432;BME280;35187;31.882;34.828;2023-04-24T03:23:04;100580;;;21;42
33432;BME280;35187;31.882;34.828;2023-04-24T03:25:33;100590;;;21;42
33432;BME280;35187;31.882;34.828;2023-04-24T03:28:02;100590;;;21;42
33432;BME280;35187;31.882;34.828;2023-04-24T03:30:30;100590;;;21;42
33432;BME280;35187;31.882;34.828;2023-04-24T03:32:59;100600;;;21;42
33432;BME280;35187;31.882;34.828;2023-04-24T03:35:28;100600;;;21;42
33432;BME280;35187;31.882;34.828;2023-04-24T03:37:57;100610;;;21;42
33432;BME280;35187;31.882;34.828;2023-04-24T03:40:26;100610;;;21;42
33432;BME280;35187;31.882;34.828;2023-04-24T03:42:54;100610;;;21;42
33432;BME280;35187;31.882;34.828;2023-04-24T03:45:52;100620;;;21;42
33432;BME280;35187;31.882;34.828;2023-04-24T03:48:21;100620;;;21;42
33432;BME280;35187;31.882;34.828;2023-04-24T03:50:50;100620;;;21;42
33432;BME280;35187;31.882;34.828;2023-04-24T03:53:19;100630;;;21;42
33432;BME280;35187;31.882;34.828;2023-04-24T03:55:48;100630;;;21;42
33432;BME280;35187;31.882;34.828;2023-04-24T03:58:17;100630;;;21;42
33432;BME280;35187;31.882;34.828;2023-04-24T04:00:46;100630;;;21;42
33432;BME280;35187;31.882;34.828;2023-04-24T04:03:15;100640;;;21;41
33432;BME280;35187;31.882;34.828;2023-04-24T04:05:44;100640;;;21;41
33432;BME280;35187;31.882;34.828;2023-04-24T04:08:12;100640;;;21;41
33432;BME280;35187;31.882;34.828;2023-04-24T04:10:41;100640;;;21;41
33432;BME280;35187;31.882;34.828;2023-04-24T04:13:10;100640;;;21;41
33432;BME280;35187;31.882;34.828;2023-04-24T04:15:39;100640;;;21;42
33432;BME280;35187;31.882;34.828;2023-04-24T04:18:08;100640;;;21;41
33432;BME280;35187;31.882;34.828;2023-04-24T04:20:37;100640;;;21;41
33432;BME280;35187;31.882;34.828;2023-04-24T04:23:06;100640;;;21;41
33432;BME280;35187;31.882;34.828;2023-04-24T04:25:35;100640;;;21;41
33432;BME280;35187;31.882;34.828;2023-04-24T04:28:03;100640;;;21;40
33432;BME280;35187;31.882;34.828;2023-04-24T04:30:32;100650;;;21;40
33432;BME280;35187;31.882;34.828;2023-04-24T04:33:01;100640;;;21;40
33432;BME280;35187;31.882;34.828;2023-04-24T04:35:30;100640;;;21;40
33432;BME280;35187;31.882;34.828;2023-04-24T04:37:59;100640;;;21;39
33432;BME280;35187;31.882;34.828;2023-04-24T04:40:28;100650;;;21;39
33432;BME280;35187;31.882;34.828;2023-04-24T04:42:56;100650;;;21;39
33432;BME280;35187;31.882;34.828;2023-04-24T04:45:25;100650;;;21;39
33432;BME280;35187;31.882;34.828;2023-04-24T04:47:54;100660;;;21;39
33432;BME280;35187;31.882;34.828;2023-04-24T04:50:23;100660;;;21;39
33432;BME280;35187;31.882;34.828;2023-04-24T04:52:52;100660;;;20;39
33432;BME280;35187;31.882;34.828;2023-04-24T04:55:21;100670;;;21;40
33432;BME280;35187;31.882;34.828;2023-04-24T04:57:51;100670;;;21;39
33432;BME280;35187;31.882;34.828;2023-04-24T05:00:20;100670;;;21;40
33432;BME280;35187;31.882;34.828;2023-04-24T05:03:22;100670;;;21;39
33432;BME280;35187;31.882;34.828;2023-04-24T05:05:51;100660;;;21;40
33432;BME280;35187;31.882;34.828;2023-04-24T05:08:20;100670;;;21;40
33432;BME280;35187;31.882;34.828;2023-04-24T05:10:49;100660;;;21;40
33432;BME280;35187;31.882;34.828;2023-04-24T05:13:17;100660;;;21;40
33432;BME280;35187;31.882;34.828;2023-04-24T05:15:48;100670;;;21;39
33432;BME280;35187;31.882;34.828;2023-04-24T05:18:17;100670;;;21;39
33432;BME280;35187;31.882;34.828;2023-04-24T05:20:45;100670;;;21;39
33432;BME280;35187;31.882;34.828;2023-04-24T05:23:14;100680;;;21;39
33432;BME280;35187;31.882;34.828;2023-04-24T05:25:43;100680;;;21;40
33432;BME280;35187;31.882;34.828;2023-04-24T05:28:12;100680;;;20;40
33432;BME280;35187;31.882;34.828;2023-04-24T05:30:41;100680;;;21;40
33432;BME280;35187;31.882;34.828;2023-04-24T05:33:10;100680;;;21;40
33432;BME280;35187;31.882;34.828;2023-04-24T05:35:40;100680;;;21;40
33432;BME280;35187;31.882;34.828;2023-04-24T05:38:09;100680;;;21;40
33432;BME280;35187;31.882;34.828;2023-04-24T05:40:38;100680;;;21;40
33432;BME280;35187;31.882;34.828;2023-04-24T05:43:07;100680;;;21;40
33432;BME280;35187;31.882;34.828;2023-04-24T05:45:35;100680;;;21;41
33432;BME280;35187;31.882;34.828;2023-04-24T05:48:04;100680;;;21;41
33432;BME280;35187;31.882;34.828;2023-04-24T05:50:33;100680;;;21;42
33432;BME280;35187;31.882;34.828;2023-04-24T05:53:02;100690;;;21;42
33432;BME280;35187;31.882;34.828;2023-04-24T05:55:31;100700;;;21;43
33432;BME280;35187;31.882;34.828;2023-04-24T05:58:00;100700;;;21;43
33432;BME280;35187;31.882;34.828;2023-04-24T06:00:29;100700;;;21;43
33432;BME280;35187;31.882;34.828;2023-04-24T06:02:59;100700;;;21;44
33432;BME280;35187;31.882;34.828;2023-04-24T06:05:28;100700;;;21;43
33432;BME280;35187;31.882;34.828;2023-04-24T06:07:57;100710;;;21;43
33432;BME280;35187;31.882;34.828;2023-04-24T06:10:26;100710;;;21;43
33432;BME280;35187;31.882;34.828;2023-04-24T06:12:55;100710;;;21;42
33432;BME280;35187;31.882;34.828;2023-04-24T06:15:24;100710;;;21;41
33432;BME280;35187;31.882;34.828;2023-04-24T06:17:53;100710;;;21;41
33432;BME280;35187;31.882;34.828;2023-04-24T06:20:22;100710;;;21;40
33432;BME280;35187;31.882;34.828;2023-04-24T06:22:51;100720;;;21;40
33432;BME280;35187;31.882;34.828;2023-04-24T06:25:20;100720;;;21;40
33432;BME280;35187;31.882;34.828;2023-04-24T06:27:49;100720;;;21;40
33432;BME280;35187;31.882;34.828;2023-04-24T06:30:17;100720;;;21;40
33432;BME280;35187;31.882;34.828;2023-04-24T06:32:46;100720;;;21;40
33432;BME280;35187;31.882;34.828;2023-04-24T06:35:15;100720;;;21;40
33432;BME280;35187;31.882;34.828;2023-04-24T06:37:44;100730;;;21;41
33432;BME280;35187;31.882;34.828;2023-04-24T06:40:13;100730;;;21;41
33432;BME280;35187;31.882;34.828;2023-04-24T06:42:42;100730;;;21;41
33432;BME280;35187;31.882;34.828;2023-04-24T06:45:11;100730;;;21;41
33432;BME280;35187;31.882;34.828;2023-04-24T06:47:39;100730;;;21;41
33432;BME280;35187;31.882;34.828;2023-04-24T06:50:09;100740;;;21;41
33432;BME280;35187;31.882;34.828;2023-04-24T06:52:38;100740;;;21;40
33432;BME280;35187;31.882;34.828;2023-04-24T06:55:08;100740;;;21;40
33432;BME280;35187;31.882;34.828;2023-04-24T06:57:37;100740;;;21;41
33432;BME280;35187;31.882;34.828;2023-04-24T07:00:07;100740;;;21;41
33432;BME280;35187;31.882;34.828;2023-04-24T07:02:36;100740;;;21;41
33432;BME280;35187;31.882;34.828;2023-04-24T07:05:05;100750;;;21;41
33432;BME280;35187;31.882;34.828;2023-04-24T07:07:33;100750;;;21;41
33432;BME280;35187;31.882;34.828;2023-04-24T07:10:02;100760;;;21;41
33432;BME280;35187;31.882;34.828;2023-04-24T07:12:31;100760;;;21;41
33432;BME280;35187;31.882;34.828;2023-04-24T07:15:00;100760;;;21;41
33432;BME280;35187;31.882;34.828;2023-04-24T07:17:29;100760;;;21;41
33432;BME280;35187;31.882;34.828;2023-04-24T07:19:58;100760;;;21;41
33432;BME280;35187;31.882;34.828;2023-04-24T07:22:27;100760;;;21;41
33432;BME280;35187;31.882;34.828;2023-04-24T07:24:55;100770;;;21;42
33432;BME280;35187;31.882;34.828;2023-04-24T07:27:25;100760;;;21;42
33432;BME280;35187;31.882;34.828;2023-04-24T07:29:54;100760;;;21;42
33432;BME280;35187;31.882;34.828;2023-04-24T07:32:23;100760;;;21;42
33432;BME280;35187;31.882;34.828;2023-04-24T07:34:52;100760;;;21;42
33432;BME280;35187;31.882;34.828;2023-04-24T07:37:21;100760;;;21;42
33432;BME280;35187;31.882;34.828;2023-04-24T07:39:50;100760;;;21;42
33432;BME280;35187;31.882;34.828;2023-04-24T07:42:19;100760;;;21;42
33432;BME280;35187;31.882;34.828;2023-04-24T07:44:47;100760;;;21;42
33432;BME280;35187;31.882;34.828;2023-04-24T07:47:16;100760;;;21;42
33432;BME280;35187;31.882;34.828;2023-04-24T07:49:45;100760;;;21;42
33432;BME280;35187;31.882;34.828;2023-04-24T07:52:14;100760;;;21;42
33432;BME280;35187;31.882;34.828;2023-04-24T07:54:42;100760;;;21;42
33432;BME280;35187;31.882;34.828;2023-04-24T07:57:11;100750;;;21;42
33432;BME280;35187;31.882;34.828;2023-04-24T07:59:40;100760;;;21;42
33432;BME280;35187;31.882;34.828;2023-04-24T08:02:09;100760;;;21;42
33432;BME280;35187;31.882;34.828;2023-04-24T08:04:37;100760;;;21;42
33432;BME280;35187;31.882;34.828;2023-04-24T08:07:06;100760;;;21;42
33432;BME280;35187;31.882;34.828;2023-04-24T08:09:35;100760;;;21;42
33432;BME280;35187;31.882;34.828;2023-04-24T08:12:04;100760;;;21;42
33432;BME280;35187;31.882;34.828;2023-04-24T08:14:33;100760;;;21;42
33432;BME280;35187;31.882;34.828;2023-04-24T08:17:02;100760;;;21;43
33432;BME280;35187;31.882;34.828;2023-04-24T08:19:31;100770;;;21;43
33432;BME280;35187;31.882;34.828;2023-04-24T08:22:00;100770;;;21;42
33432;BME280;35187;31.882;34.828;2023-04-24T08:24:28;100770;;;21;42
33432;BME280;35187;31.882;34.828;2023-04-24T08:26:57;100770;;;21;42
33432;BME280;35187;31.882;34.828;2023-04-24T08:29:26;100760;;;22;42
33432;BME280;35187;31.882;34.828;2023-04-24T08:31:55;100770;;;21;43
33432;BME280;35187;31.882;34.828;2023-04-24T08:34:23;100770;;;21;43
33432;BME280;35187;31.882;34.828;2023-04-24T08:36:52;100770;;;21;43
33432;BME280;35187;31.882;34.828;2023-04-24T08:39:21;100770;;;21;42
33432;BME280;35187;31.882;34.828;2023-04-24T08:41:50;100760;;;22;43
33432;BME280;35187;31.882;34.828;2023-04-24T08:44:21;100760;;;21;43
33432;BME280;35187;31.882;34.828;2023-04-24T08:46:50;100770;;;21;43
33432;BME280;35187;31.882;34.828;2023-04-24T08:49:19;100770;;;21;43
33432;BME280;35187;31.882;34.828;2023-04-24T08:51:49;100770;;;21;43
33432;BME280;35187;31.882;34.828;2023-04-24T08:54:19;100770;;;21;43
33432;BME280;35187;31.882;34.828;2023-04-24T08:56:49;100780;;;21;43
33432;BME280;35187;31.882;34.828;2023-04-24T08:59:19;100770;;;21;43
33432;BME280;35187;31.882;34.828;2023-04-24T09:01:48;100770;;;21;43
33432;BME280;35187;31.882;34.828;2023-04-24T09:04:20;100770;;;21;43
33432;BME280;35187;31.882;34.828;2023-04-24T09:06:50;100760;;;21;43
33432;BME280;35187;31.882;34.828;2023-04-24T09:09:19;100760;;;21;43
33432;BME280;35187;31.882;34.828;2023-04-24T09:11:49;100760;;;21;43
33432;BME280;35187;31.882;34.828;2023-04-24T09:14:19;100760;;;22;43
33432;BME280;35187;31.882;34.828;2023-04-24T09:16:48;100760;;;21;43
33432;BME280;35187;31.882;34.828;2023-04-24T09:19:17;100760;;;21;43
33432;BME280;35187;31.882;34.828;2023-04-24T09:21:46;100760;;;21;43
33432;BME280;35187;31.882;34.828;2023-04-24T09:24:17;100760;;;21;43
33432;BME280;35187;31.882;34.828;2023-04-24T09:26:46;100760;;;21;43
33432;BME280;35187;31.882;34.828;2023-04-24T09:29:15;100760;;;21;43
33432;BME280;35187;31.882;34.828;2023-04-24T09:31:45;100760;;;21;43
33432;BME280;35187;31.882;34.828;2023-04-24T09:34:18;100760;;;22;43
33432;BME280;35187;31.882;34.828;2023-04-24T09:36:50;100750;;;21;43
33432;BME280;35187;31.882;34.828;2023-04-24T09:39:19;100750;;;21;43
33432;BME280;35187;31.882;34.828;2023-04-24T09:41:49;100750;;;21;43
33432;BME280;35187;31.882;34.828;2023-04-24T09:44:20;100750;;;21;43
33432;BME280;35187;31.882;34.828;2023-04-24T09:46:51;100750;;;21;43
33432;BME280;35187;31.882;34.828;2023-04-24T09:49:22;100750;;;21;43
33432;BME280;35187;31.882;34.828;2023-04-24T09:51:52;100750;;;21;42
33432;BME280;35187;31.882;34.828;2023-04-24T09:54:30;100750;;;22;42
33432;BME280;35187;31.882;34.828;2023-04-24T09:56:59;100740;;;22;42
33432;BME280;35187;31.882;34.828;2023-04-24T09:59:29;100740;;;21;42
33432;BME280;35187;31.882;34.828;2023-04-24T10:01:58;100740;;;22;42
33432;BME280;35187;31.882;34.828;2023-04-24T10:04:28;100740;;;22;42
33432;BME280;35187;31.882;34.828;2023-04-24T10:06:57;100740;;;22;42
33432;BME280;35187;31.882;34.828;2023-04-24T10:09:27;100740;;;21;43
33432;BME280;35187;31.882;34.828;2023-04-24T10:11:55;100730;;;21;42
33432;BME280;35187;31.882;34.828;2023-04-24T10:14:25;100730;;;22;42
33432;BME280;35187;31.882;34.828;2023-04-24T10:16:55;100740;;;22;42
33432;BME280;35187;31.882;34.828;2023-04-24T10:19:26;100740;;;22;42
33432;BME280;35187;31.882;34.828;2023-04-24T10:21:55;100730;;;21;42
33432;BME280;35187;31.882;34.828;2023-04-24T10:24:24;100730;;;22;42
33432;BME280;35187;31.882;34.828;2023-04-24T10:26:53;100740;;;21;42
33432;BME280;35187;31.882;34.828;2023-04-24T10:29:23;100730;;;21;42
33432;BME280;35187;31.882;34.828;2023-04-24T10:31:53;100730;;;22;43
33432;BME280;35187;31.882;34.828;2023-04-24T10:34:23;100730;;;22;43
33432;BME280;35187;31.882;34.828;2023-04-24T10:36:53;100730;;;22;43
33432;BME280;35187;31.882;34.828;2023-04-24T10:39:24;100730;;;21;43
33432;BME280;35187;31.882;34.828;2023-04-24T10:41:53;100730;;;21;43
33432;BME280;35187;31.882;34.828;2023-04-24T10:44:22;100730;;;22;43
33432;BME280;35187;31.882;34.828;2023-04-24T10:46:54;100730;;;22;44
33432;BME280;35187;31.882;34.828;2023-04-24T10:49:29;100730;;;21;44
33432;BME280;35187;31.882;34.828;2023-04-24T10:52:01;100720;;;21;44
33432;BME280;35187;31.882;34.828;2023-04-24T10:54:34;100720;;;22;43
33432;BME280;35187;31.882;34.828;2023-04-24T10:57:36;100720;;;22;43
33432;BME280;35187;31.882;34.828;2023-04-24T11:00:24;100720;;;22;43
33432;BME280;35187;31.882;34.828;2023-04-24T11:02:53;100720;;;22;43
33432;BME280;35187;31.882;34.828;2023-04-24T11:05:52;100720;;;22;44
33432;BME280;35187;31.882;34.828;2023-04-24T11:08:27;100720;;;21;44
33432;BME280;35187;31.882;34.828;2023-04-24T11:11:00;100720;;;22;44
33432;BME280;35187;31.882;34.828;2023-04-24T11:14:04;100720;;;22;44
33432;BME280;35187;31.882;34.828;2023-04-24T11:16:37;100710;;;22;44
33432;BME280;35187;31.882;34.828;2023-04-24T11:19:23;100710;;;22;44
33432;BME280;35187;31.882;34.828;2023-04-24T11:21:57;100720;;;22;44
33432;BME280;35187;31.882;34.828;2023-04-24T11:24:39;100710;;;21;44
33432;BME280;35187;31.882;34.828;2023-04-24T11:27:14;100710;;;21;44
33432;BME280;35187;31.882;34.828;2023-04-24T11:29:45;100700;;;22;44
33432;BME280;35187;31.882;34.828;2023-04-24T11:32:16;100700;;;22;44
33432;BME280;35187;31.882;34.828;2023-04-24T11:34:47;100700;;;22;44
33432;BME280;35187;31.882;34.828;2023-04-24T11:37:22;100700;;;22;44
33432;BME280;35187;31.882;34.828;2023-04-24T11:39:52;100700;;;22;44
33432;BME280;35187;31.882;34.828;2023-04-24T11:42:22;100690;;;22;44
33432;BME280;35187;31.882;34.828;2023-04-24T11:45:00;100690;;;21;44
33432;BME280;35187;31.882;34.828;2023-04-24T11:47:29;100700;;;22;44
33432;BME280;35187;31.882;34.828;2023-04-24T11:49:58;100700;;;22;44
33432;BME280;35187;31.882;34.828;2023-04-24T11:52:29;100690;;;22;44
33432;BME280;35187;31.882;34.828;2023-04-24T11:54:59;100690;;;22;43
33432;BME280;35187;31.882;34.828;2023-04-24T11:57:28;100690;;;22;43
33432;BME280;35187;31.882;34.828;2023-04-24T12:00:00;100690;;;21;43
33432;BME280;35187;31.882;34.828;2023-04-24T12:02:29;100690;;;21;43
33432;BME280;35187;31.882;34.828;2023-04-24T12:04:58;100680;;;22;43
33432;BME280;35187;31.882;34.828;2023-04-24T12:07:27;100680;;;22;43
33432;BME280;35187;31.882;34.828;2023-04-24T12:09:59;100670;;;21;43
33432;BME280;35187;31.882;34.828;2023-04-24T12:12:29;100670;;;21;43
33432;BME280;35187;31.882;34.828;2023-04-24T12:14:59;100670;;;21;43
33432;BME280;35187;31.882;34.828;2023-04-24T12:17:31;100670;;;21;43
33432;BME280;35187;31.882;34.828;2023-04-24T12:20:01;100670;;;21;43
33432;BME280;35187;31.882;34.828;2023-04-24T12:22:44;100680;;;21;43
33432;BME280;35187;31.882;34.828;2023-04-24T12:25:19;100680;;;22;43
33432;BME280;35187;31.882;34.828;2023-04-24T12:28:09;100670;;;21;43
33432;BME280;35187;31.882;34.828;2023-04-24T12:30:41;100680;;;21;43
33432;BME280;35187;31.882;34.828;2023-04-24T12:33:11;100670;;;22;43
33432;BME280;35187;31.882;34.828;2023-04-24T12:35:41;100670;;;21;43
33432;BME280;35187;31.882;34.828;2023-04-24T12:38:12;100680;;;21;43
33432;BME280;35187;31.882;34.828;2023-04-24T12:40:43;100680;;;21;43
33432;BME280;35187;31.882;34.828;2023-04-24T12:43:14;100670;;;21;43
33432;BME280;35187;31.882;34.828;2023-04-24T12:45:44;100670;;;21;43
33432;BME280;35187;31.882;34.828;2023-04-24T12:48:12;100680;;;22;43
33432;BME280;35187;31.882;34.828;2023-04-24T12:50:41;100670;;;21;43
33432;BME280;35187;31.882;34.828;2023-04-24T12:53:13;100670;;;21;43
33432;BME280;35187;31.882;34.828;2023-04-24T12:55:42;100660;;;21;43
33432;BME280;35187;31.882;34.828;2023-04-24T12:58:11;100670;;;21;43
33432;BME280;35187;31.882;34.828;2023-04-24T13:00:40;100670;;;21;43
33432;BME280;35187;31.882;34.828;2023-04-24T13:03:09;100660;;;21;43
33432;BME280;35187;31.882;34.828;2023-04-24T13:05:37;100660;;;21;43
33432;BME280;35187;31.882;34.828;2023-04-24T13:08:06;100660;;;21;43
33432;BME280;35187;31.882;34.828;2023-04-24T13:10:37;100660;;;21;43
33432;BME280;35187;31.882;34.828;2023-04-24T13:13:07;100660;;;21;44
33432;BME280;35187;31.882;34.828;2023-04-24T13:15:36;100660;;;21;44
33432;BME280;35187;31.882;34.828;2023-04-24T13:18:05;100660;;;21;44
33432;BME280;35187;31.882;34.828;2023-04-24T13:20:34;100660;;;21;43
33432;BME280;35187;31.882;34.828;2023-04-24T13:23:03;100660;;;21;43
33432;BME280;35187;31.882;34.828;2023-04-24T13:25:35;100670;;;21;43
33432;BME280;35187;31.882;34.828;2023-04-24T13:28:05;100670;;;21;43
33432;BME280;35187;31.882;34.828;2023-04-24T13:30:34;100670;;;21;43
33432;BME280;35187;31.882;34.828;2023-04-24T13:33:03;100670;;;22;43
33432;BME280;35187;31.882;34.828;2023-04-24T13:35:33;100670;;;21;43
33432;BME280;35187;31.882;34.828;2023-04-24T13:38:02;100670;;;21;43
33432;BME280;35187;31.882;34.828;2023-04-24T13:40:30;100670;;;21;43
33432;BME280;35187;31.882;34.828;2023-04-24T13:42:59;100670;;;21;43
33432;BME280;35187;31.882;34.828;2023-04-24T13:45:28;100670;;;21;43
33432;BME280;35187;31.882;34.828;2023-04-24T13:47:57;100670;;;21;43
33432;BME280;35187;31.882;34.828;2023-04-24T13:50:26;100670;;;21;43
33432;BME280;35187;31.882;34.828;2023-04-24T13:52:56;100670;;;21;43
33432;BME280;35187;31.882;34.828;2023-04-24T13:55:26;100670;;;21;43
33432;BME280;35187;31.882;34.828;2023-04-24T13:57:57;100670;;;21;43
33432;BME280;35187;31.882;34.828;2023-04-24T14:00:26;100670;;;21;43
33432;BME280;35187;31.882;34.828;2023-04-24T14:02:55;100670;;;21;43
33432;BME280;35187;31.882;34.828;2023-04-24T14:05:26;100670;;;21;43
33432;BME280;35187;31.882;34.828;2023-04-24T14:08:00;100670;;;21;43
33432;BME280;35187;31.882;34.828;2023-04-24T14:10:30;100680;;;22;43
33432;BME280;35187;31.882;34.828;2023-04-24T14:13:07;100680;;;21;43
33432;BME280;35187;31.882;34.828;2023-04-24T14:15:37;100680;;;21;43
33432;BME280;35187;31.882;34.828;2023-04-24T14:18:19;100690;;;21;43
33432;BME280;35187;31.882;34.828;2023-04-24T14:20:50;100690;;;21;43
33432;BME280;35187;31.882;34.828;2023-04-24T14:23:24;100690;;;21;43
33432;BME280;35187;31.882;34.828;2023-04-24T14:25:53;100690;;;22;42
33432;BME280;35187;31.882;34.828;2023-04-24T14:28:26;100690;;;21;42
33432;BME280;35187;31.882;34.828;2023-04-24T14:30:55;100690;;;22;42
33432;BME280;35187;31.882;34.828;2023-04-24T14:33:25;100690;;;21;42
33432;BME280;35187;31.882;34.828;2023-04-24T14:35:54;100690;;;22;42
33432;BME280;35187;31.882;34.828;2023-04-24T14:38:24;100690;;;22;41